Time;durP1;ratioP1;P1;durP2;ratioP2;P2;SDS_P1;SDS_P2;PMS_P1;PMS_P2;Temp;Humidity;BMP_temperature;BMP_pressure;BME280_temperature;BME280_humidity;BME280_pressure;Samples;Min_cycle;Max_cycle;Signal;HPM_P1;HPM_P2
2022/09/05 00:02:01;;;;;;;2.30;1.00;;;;;;;14.69;45.24;101517.45;105149;1284;24346;-79
2022/09/05 00:04:53;;;;;;;1.00;0.90;;;;;;;14.65;45.21;101519.08;105377;1284;25418;-76
2022/09/05 00:07:25;;;;;;;1.30;0.80;;;;;;;14.59;45.42;101514.35;105568;1281;25493;-80
2022/09/05 00:10:23;;;;;;;2.10;0.80;;;;;;;14.55;45.37;101523.23;107851;1281;22603;-78
2022/09/05 00:12:58;;;;;;;1.50;1.20;;;;;;;14.48;45.32;101522.04;107127;1281;26528;-76
2022/09/05 00:15:38;;;;;;;1.60;1.10;;;;;;;14.45;45.46;101522.42;105568;1282;23934;-75
2022/09/05 00:18:33;;;;;;;2.40;1.00;;;;;;;14.42;45.49;101518.54;106425;1281;22776;-77
2022/09/05 00:21:34;;;;;;;0.80;0.80;;;;;;;14.38;45.63;101520.35;106219;1284;22564;-78
2022/09/05 00:24:54;;;;;;;3.20;1.00;;;;;;;14.34;45.79;101524.81;105562;1281;25940;-78
2022/09/05 00:27:59;;;;;;;1.50;1.00;;;;;;;14.28;45.69;101525.18;105670;1284;23076;-76
2022/09/05 00:31:00;;;;;;;2.00;1.00;;;;;;;14.26;45.99;101524.14;105434;1281;25410;-76
2022/09/05 00:34:14;;;;;;;1.40;1.00;;;;;;;14.23;46.09;101523.27;105334;1281;22557;-75
2022/09/05 00:36:46;;;;;;;2.00;1.40;;;;;;;14.21;46.31;101526.13;105351;1281;22887;-76
2022/09/05 00:39:18;;;;;;;2.50;1.00;;;;;;;14.20;46.34;101524.36;105144;1282;22682;-76
2022/09/05 00:41:49;;;;;;;1.30;0.90;;;;;;;14.18;46.34;101526.49;105168;1285;22864;-79
2022/09/05 00:44:21;;;;;;;2.50;1.00;;;;;;;14.16;46.47;101521.55;105397;1284;22533;-78
2022/09/05 00:47:03;;;;;;;4.60;0.90;;;;;;;14.15;46.44;101524.40;105517;1281;22571;-80
2022/09/05 00:49:46;;;;;;;0.60;0.60;;;;;;;14.14;46.60;101520.67;105506;1281;22534;-78
2022/09/05 00:52:49;;;;;;;1.60;0.90;;;;;;;14.11;46.79;101518.73;105576;1281;24513;-78
2022/09/05 00:56:07;;;;;;;1.60;0.90;;;;;;;14.07;46.77;101512.91;105118;1281;22542;-76
2022/09/05 00:59:19;;;;;;;2.40;1.10;;;;;;;14.02;46.80;101507.63;105065;1283;24306;-81
2022/09/05 01:01:54;;;;;;;1.70;1.40;;;;;;;13.98;46.93;101510.67;105422;1281;24255;-80
2022/09/05 01:04:21;;;;;;;1.20;0.80;;;;;;;13.95;46.95;101511.74;104916;1287;23902;-80
2022/09/05 01:07:02;;;;;;;1.00;0.80;;;;;;;13.94;46.92;101512.63;104453;1293;24259;-80
2022/09/05 01:09:44;;;;;;;2.10;0.80;;;;;;;13.90;47.02;101514.25;104393;1290;24354;-80
2022/09/05 01:12:32;;;;;;;1.30;1.00;;;;;;;13.87;47.14;101515.85;104748;1287;24252;-81
2022/09/05 01:15:05;;;;;;;1.00;0.90;;;;;;;13.84;47.23;101518.52;104402;1294;22635;-79
2022/09/05 01:18:01;;;;;;;1.90;0.80;;;;;;;13.81;47.32;101521.55;104369;1294;24383;-80
2022/09/05 01:20:59;;;;;;;1.60;0.90;;;;;;;13.74;47.33;101519.98;103897;1293;22670;-76
2022/09/05 01:23:56;;;;;;;1.20;0.80;;;;;;;13.70;47.51;101519.48;104364;1293;23005;-78
2022/09/05 01:26:37;;;;;;;1.60;0.70;;;;;;;13.67;47.51;101515.58;104833;1287;22575;-76
2022/09/05 01:29:49;;;;;;;1.30;1.20;;;;;;;13.64;47.62;101517.55;105208;1281;22570;-76
2022/09/05 01:32:57;;;;;;;1.10;1.00;;;;;;;13.60;47.82;101518.79;105573;1281;22559;-78
2022/09/05 01:35:54;;;;;;;2.00;1.00;;;;;;;13.55;47.80;101516.52;105872;1276;22650;-79
2022/09/05 01:38:51;;;;;;;1.10;0.90;;;;;;;13.49;47.90;101514.23;105879;1277;24751;-77
2022/09/05 01:41:59;;;;;;;3.10;1.10;;;;;;;13.48;47.75;101520.94;105873;1277;22550;-79
2022/09/05 01:44:46;;;;;;;2.00;1.10;;;;;;;13.46;47.88;101522.89;105966;1275;22742;-78
2022/09/05 01:47:39;;;;;;;1.50;0.80;;;;;;;13.44;47.91;101522.36;106051;1274;25265;-75
2022/09/05 01:53:56;;;;;;;1.40;1.00;;;;;;;13.31;48.39;101525.40;106040;1273;22538;-76
2022/09/05 01:56:40;;;;;;;3.30;1.20;;;;;;;13.30;48.41;101523.10;105898;1275;22971;-78
2022/09/05 01:59:16;;;;;;;1.20;1.10;;;;;;;13.26;48.37;101524.71;106048;1274;22544;-79
2022/09/05 02:01:46;;;;;;;;;;;;;;;13.24;48.50;101523.29;106122;1273;22551;-77
2022/09/05 02:08:45;;;;;;;1.30;1.20;;;;;;;13.13;48.74;101530.55;105911;1274;22549;-78
2022/09/05 02:11:13;;;;;;;1.00;0.70;;;;;;;13.08;48.77;101530.40;105910;1274;22553;-77
2022/09/05 02:14:51;;;;;;;1.00;0.90;;;;;;;13.05;49.08;101527.55;105726;1278;22553;-77
2022/09/05 02:17:18;;;;;;;4.70;1.00;;;;;;;13.02;49.12;101528.28;105830;1277;25321;-73
2022/09/05 02:20:25;;;;;;;1.80;1.10;;;;;;;12.96;49.20;101524.02;105878;1276;26585;-77
2022/09/05 02:22:55;;;;;;;1.20;1.10;;;;;;;12.94;49.27;101524.39;105934;1277;25385;-78
2022/09/05 02:25:38;;;;;;;1.60;1.10;;;;;;;12.92;49.20;101526.70;105965;1277;22528;-77
2022/09/05 02:28:47;;;;;;;1.80;1.00;;;;;;;12.87;49.37;101532.19;106067;1276;25261;-75
2022/09/05 02:31:34;;;;;;;3.80;1.30;;;;;;;12.80;49.39;101534.13;105959;1276;24279;-79
2022/09/05 02:34:16;;;;;;;2.70;1.20;;;;;;;12.73;49.55;101532.52;106145;1273;24271;-78
2022/09/05 02:41:06;;;;;;;1.10;0.90;;;;;;;12.63;49.58;101537.47;105156;1284;22541;-77
2022/09/05 02:44:31;;;;;;;2.20;1.30;;;;;;;12.57;49.91;101539.58;105309;1284;25264;-76
2022/09/05 02:47:25;;;;;;;2.00;1.10;;;;;;;12.49;49.95;101537.81;104962;1284;25265;-77
2022/09/05 02:54:54;;;;;;;2.20;1.20;;;;;;;12.43;50.60;101538.70;104920;1287;22577;-77
2022/09/05 02:58:06;;;;;;;3.30;1.20;;;;;;;12.42;50.50;101539.04;104904;1287;24421;-78
2022/09/05 03:00:47;;;;;;;3.60;1.40;;;;;;;12.41;50.64;101543.81;104464;1290;25288;-76
2022/09/05 03:07:54;;;;;;;1.90;0.90;;;;;;;12.30;51.02;101542.91;104395;1290;22564;-78
2022/09/05 03:10:48;;;;;;;1.30;0.90;;;;;;;12.26;50.95;101548.55;105340;1290;22499;-82
2022/09/05 03:13:51;;;;;;;3.50;1.50;;;;;;;12.21;51.16;101548.00;106175;1290;23944;-86
2022/09/05 03:16:57;;;;;;;2.00;1.00;;;;;;;12.21;51.25;101550.30;106019;1287;22525;-75
2022/09/05 03:19:40;;;;;;;2.00;0.90;;;;;;;12.09;51.32;101556.09;105613;1284;25549;-80
2022/09/05 03:22:43;;;;;;;3.00;1.30;;;;;;;12.04;51.51;101549.35;106546;1285;25408;-77
2022/09/05 03:25:31;;;;;;;3.10;1.30;;;;;;;12.01;51.82;101548.96;107938;1281;22558;-74
2022/09/05 03:28:29;;;;;;;2.40;1.40;;;;;;;12.00;51.99;101547.03;106557;1281;25499;-73
2022/09/05 03:31:21;;;;;;;1.80;0.90;;;;;;;11.98;52.06;101549.84;106269;1281;24299;-73
2022/09/05 03:34:25;;;;;;;1.90;1.10;;;;;;;11.97;52.15;101550.90;106696;1274;22767;-74
2022/09/05 03:37:30;;;;;;;5.30;1.50;;;;;;;11.91;52.26;101552.98;106984;1274;24387;-78
2022/09/05 03:40:19;;;;;;;5.90;1.30;;;;;;;11.83;52.34;101547.48;105471;1281;22556;-78
2022/09/05 03:43:02;;;;;;;5.00;1.40;;;;;;;11.86;52.47;101560.91;104831;1287;27124;-75
2022/09/05 03:45:56;;;;;;;4.20;1.20;;;;;;;11.83;52.50;101561.44;104950;1287;24253;-76
2022/09/05 03:48:41;;;;;;;3.20;1.60;;;;;;;11.80;52.63;101559.30;104788;1287;22551;-78
2022/09/05 03:51:14;;;;;;;4.90;1.60;;;;;;;11.74;52.74;101563.67;104993;1287;22832;-77
2022/09/05 03:54:17;;;;;;;1.90;1.40;;;;;;;11.71;52.90;101562.08;104785;1287;25385;-78
2022/09/05 04:01:34;;;;;;;7.90;1.80;;;;;;;11.67;53.22;101571.40;105116;1282;22537;-79
2022/09/05 04:09:01;;;;;;;5.00;2.00;;;;;;;11.66;53.28;101568.77;106152;1274;22538;-80
2022/09/05 04:11:36;;;;;;;5.30;1.50;;;;;;;11.61;53.32;101570.67;106089;1275;23917;-78
2022/09/05 04:18:21;;;;;;;3.00;1.60;;;;;;;11.55;53.58;101571.16;106108;1274;22537;-81
2022/09/05 04:21:07;;;;;;;2.20;1.70;;;;;;;11.54;53.58;101572.04;105876;1275;24314;-88
2022/09/05 04:24:16;;;;;;;3.70;1.50;;;;;;;11.50;53.72;101574.66;106626;1274;25417;-79
2022/09/05 04:26:59;;;;;;;4.00;1.80;;;;;;;11.49;53.90;101578.38;105907;1276;22568;-83
2022/09/05 04:29:57;;;;;;;3.30;1.50;;;;;;;11.46;53.96;101579.93;106081;1275;25377;-81
2022/09/05 04:32:55;;;;;;;2.00;1.40;;;;;;;11.46;54.12;101584.16;105922;1274;22728;-77
2022/09/05 04:35:29;;;;;;;3.50;1.60;;;;;;;11.43;54.22;101586.09;106008;1274;22782;-82
2022/09/05 04:38:11;;;;;;;2.30;1.40;;;;;;;11.42;54.21;101585.90;106051;1275;22518;-79
2022/09/05 04:40:42;;;;;;;2.40;1.60;;;;;;;11.42;54.43;101588.91;105997;1274;23084;-80
2022/09/05 04:43:28;;;;;;;4.30;1.80;;;;;;;11.45;54.52;101592.45;105979;1275;24242;-81
2022/09/05 04:46:04;;;;;;;5.20;1.50;;;;;;;11.42;54.57;101592.42;106154;1274;24342;-80
2022/09/05 04:48:52;;;;;;;8.50;1.70;;;;;;;11.41;54.63;101596.84;106401;1274;22869;-82
2022/09/05 04:51:32;;;;;;;2.50;1.50;;;;;;;11.42;54.79;101601.25;106285;1275;23214;-83
2022/09/05 04:54:24;;;;;;;6.90;1.60;;;;;;;11.43;54.73;101601.25;106072;1275;22485;-83
2022/09/05 04:57:33;;;;;;;7.60;1.80;;;;;;;11.44;54.88;101605.14;106187;1273;22875;-81
2022/09/05 05:00:14;;;;;;;4.60;2.20;;;;;;;11.40;54.91;101609.88;105962;1274;25469;-82
2022/09/05 05:03:22;;;;;;;3.00;1.60;;;;;;;11.45;54.97;101610.98;104627;1274;1924015;-81
2022/09/05 05:06:28;;;;;;;3.30;1.80;;;;;;;11.48;54.98;101612.41;106051;1274;25248;-79
2022/09/05 05:09:27;;;;;;;10.50;2.50;;;;;;;11.45;54.77;101612.39;106020;1274;25486;-78
2022/09/05 05:12:08;;;;;;;5.30;1.90;;;;;;;11.42;54.96;101611.13;106059;1275;22548;-78
2022/09/05 05:15:09;;;;;;;7.40;2.00;;;;;;;11.39;55.03;101609.36;106119;1274;25487;-78
2022/09/05 05:17:56;;;;;;;2.60;1.60;;;;;;;11.45;55.16;101606.73;106015;1274;24326;-80
2022/09/05 05:21:02;;;;;;;2.80;1.40;;;;;;;11.49;55.05;101607.30;106126;1274;22701;-82
2022/09/05 05:23:40;;;;;;;9.70;2.00;;;;;;;11.52;54.98;101606.61;106132;1273;24332;-80
2022/09/05 05:26:19;;;;;;;2.50;1.60;;;;;;;11.59;54.81;101606.83;106040;1275;22529;-82
2022/09/05 05:29:05;;;;;;;4.50;1.90;;;;;;;11.67;54.65;101609.86;106639;1273;22761;-80
2022/09/05 05:31:36;;;;;;;6.90;2.00;;;;;;;11.71;54.48;101612.02;107347;1274;25258;-79
2022/09/05 05:34:14;;;;;;;5.00;1.60;;;;;;;11.72;54.22;101608.14;106715;1282;22546;-80
2022/09/05 05:37:07;;;;;;;4.90;1.70;;;;;;;11.78;54.14;101606.59;107481;1282;25458;-79
2022/09/05 05:39:41;;;;;;;5.90;2.10;;;;;;;11.87;53.89;101612.45;107303;1287;22795;-79
2022/09/05 05:42:16;;;;;;;7.50;2.00;;;;;;;11.93;53.78;101616.19;105740;1288;22552;-81
2022/09/05 05:44:54;;;;;;;6.90;2.10;;;;;;;11.98;53.50;101616.58;105246;1287;25291;-83
2022/09/05 05:48:07;;;;;;;5.70;2.10;;;;;;;12.05;53.48;101619.80;105173;1287;22691;-84
2022/09/05 05:50:38;;;;;;;5.50;1.90;;;;;;;12.17;53.42;101625.16;104325;1293;24748;-87
2022/09/05 05:53:43;;;;;;;6.90;2.00;;;;;;;12.24;53.19;101623.08;105325;1280;25342;-82
2022/09/05 05:56:38;;;;;;;3.70;1.80;;;;;;;12.33;53.07;101625.05;106111;1281;26897;-83
2022/09/05 05:59:43;;;;;;;7.80;3.10;;;;;;;12.40;52.97;101628.59;106759;1275;22524;-83
2022/09/05 06:03:04;;;;;;;10.60;2.00;;;;;;;12.45;52.91;101631.80;106923;1273;22565;-83
2022/09/05 06:06:09;;;;;;;4.40;2.10;;;;;;;12.52;52.65;101627.92;106725;1274;25261;-83
2022/09/05 06:09:07;;;;;;;4.00;1.60;;;;;;;12.56;52.53;101629.16;106322;1274;25233;-83
2022/09/05 06:12:32;;;;;;;9.50;1.90;;;;;;;12.62;52.56;101630.08;106484;1275;22677;-84
2022/09/05 06:15:58;;;;;;;10.70;2.10;;;;;;;12.69;52.44;101631.15;106315;1275;22624;-84
2022/09/05 06:19:03;;;;;;;6.00;1.90;;;;;;;12.77;52.33;101633.82;106226;1275;23109;-81
2022/09/05 06:21:33;;;;;;;7.20;3.50;;;;;;;12.87;52.16;101639.48;106194;1273;24517;-83
2022/09/05 06:24:41;;;;;;;9.20;2.20;;;;;;;12.94;52.09;101638.77;105983;1274;22630;-83
2022/09/05 06:27:26;;;;;;;5.30;2.00;;;;;;;13.02;51.86;101640.92;106448;1274;25248;-80
2022/09/05 06:30:09;;;;;;;5.10;2.00;;;;;;;13.08;51.79;101642.15;108089;1274;22564;-82
2022/09/05 06:32:54;;;;;;;5.20;1.70;;;;;;;13.11;51.59;101641.09;107917;1281;22583;-84
2022/09/05 06:35:30;;;;;;;9.20;2.10;;;;;;;13.17;51.43;101640.20;107227;1279;26629;-83
2022/09/05 06:38:36;;;;;;;8.40;1.90;;;;;;;13.20;51.27;101640.38;108649;1279;22486;-83
2022/09/05 06:41:21;;;;;;;7.90;1.50;;;;;;;13.30;51.34;101643.39;107843;1279;22616;-83
2022/09/05 06:44:07;;;;;;;1.90;1.50;;;;;;;13.39;51.05;101646.57;107531;1279;22554;-82
2022/09/05 06:46:37;;;;;;;5.70;1.50;;;;;;;13.48;50.67;101648.70;106886;1279;22558;-83
2022/09/05 06:49:26;;;;;;;4.30;1.70;;;;;;;13.55;50.48;101648.90;105876;1280;25437;-82
2022/09/05 06:52:45;;;;;;;8.80;1.80;;;;;;;13.63;50.26;101651.70;105636;1281;22805;-82
2022/09/05 06:55:26;;;;;;;3.70;1.60;;;;;;;13.72;50.28;101656.12;105603;1281;25410;-81
2022/09/05 06:58:25;;;;;;;5.20;1.90;;;;;;;13.80;50.31;101659.30;105654;1281;22633;-83
2022/09/05 07:00:55;;;;;;;5.70;1.70;;;;;;;13.88;50.23;101657.15;105695;1281;24313;-80
2022/09/05 07:04:15;;;;;;;6.50;1.50;;;;;;;13.95;49.99;101661.04;105243;1282;25383;-82
2022/09/05 07:07:12;;;;;;;5.20;1.60;;;;;;;14.05;49.54;101657.80;105657;1281;22625;-84
2022/09/05 07:10:12;;;;;;;5.50;1.70;;;;;;;14.13;49.48;101657.78;105970;1281;26615;-82
2022/09/05 07:13:16;;;;;;;8.30;1.80;;;;;;;14.22;49.48;101663.41;105646;1281;22786;-81
2022/09/05 07:16:04;;;;;;;5.50;1.70;;;;;;;14.30;49.27;101665.69;105548;1281;25388;-81
2022/09/05 07:18:57;;;;;;;5.90;1.50;;;;;;;14.39;49.06;101666.88;106021;1274;22610;-84
2022/09/05 07:21:41;;;;;;;;;;;;;;;14.49;48.95;101664.54;106091;1276;25774;-82
2022/09/05 07:24:26;;;;;;;4.50;1.60;;;;;;;14.57;48.77;101666.27;106079;1275;25351;-83
2022/09/05 07:27:34;;;;;;;5.00;1.70;;;;;;;14.68;48.74;101670.45;106083;1274;25434;-82
2022/09/05 07:30:21;;;;;;;8.40;1.40;;;;;;;14.78;48.16;101671.48;106046;1274;23931;-84
2022/09/05 07:32:52;;;;;;;10.80;1.60;;;;;;;14.87;47.83;101668.44;106165;1274;22553;-83
2022/09/05 07:35:42;;;;;;;5.60;1.60;;;;;;;14.93;47.48;101662.88;106258;1274;25532;-82
2022/09/05 07:38:29;;;;;;;11.80;1.70;;;;;;;15.05;47.40;101672.55;106106;1274;22846;-84
2022/09/05 07:41:38;;;;;;;6.20;1.50;;;;;;;15.17;46.88;101669.48;105928;1274;25411;-84
2022/09/05 07:44:13;;;;;;;6.30;1.50;;;;;;;15.26;46.75;101665.48;106022;1273;22622;-83
2022/09/05 07:46:42;;;;;;;5.80;1.40;;;;;;;15.35;46.41;101666.81;106189;1274;25415;-83
2022/09/05 07:49:15;;;;;;;6.20;1.40;;;;;;;15.45;46.51;101665.33;106410;1274;22881;-82
2022/09/05 07:51:54;;;;;;;6.80;1.70;;;;;;;15.56;46.33;101667.70;107413;1273;25468;-83
2022/09/05 07:54:45;;;;;;;5.20;1.80;;;;;;;15.69;45.67;101667.05;107004;1273;24211;-85
2022/09/05 07:57:40;;;;;;;8.50;1.50;;;;;;;15.81;45.46;101669.95;105865;1274;22712;-85
2022/09/05 08:00:22;;;;;;;5.60;2.00;;;;;;;15.93;45.55;101664.14;106142;1275;22552;-84
2022/09/05 08:03:07;;;;;;;5.30;1.50;;;;;;;16.06;45.16;101663.14;105921;1274;25262;-83
2022/09/05 08:05:41;;;;;;;2.80;1.20;;;;;;;16.18;44.62;101660.14;106317;1273;25482;-84
2022/09/05 08:08:13;;;;;;;3.10;1.40;;;;;;;16.31;44.26;101664.25;106407;1274;22711;-84
2022/09/05 08:10:51;;;;;;;10.50;1.20;;;;;;;16.45;44.19;101667.10;106442;1274;22952;-82
2022/09/05 08:13:38;;;;;;;3.10;1.00;;;;;;;16.62;43.90;101670.42;106267;1273;24384;-78
2022/09/05 08:16:10;;;;;;;2.80;1.70;;;;;;;16.75;43.64;101667.21;106222;1273;22556;-83
2022/09/05 08:19:20;;;;;;;9.60;1.10;;;;;;;16.93;43.71;101669.09;105412;1281;22566;-80
2022/09/05 08:21:50;;;;;;;2.50;0.90;;;;;;;17.14;42.89;101666.84;105644;1281;25269;-83
2022/09/05 08:24:31;;;;;;;4.00;1.30;;;;;;;17.29;42.43;101661.96;105385;1281;24148;-83
2022/09/05 08:27:32;;;;;;;5.00;1.40;;;;;;;17.48;42.14;101651.66;106235;1282;25427;-84
2022/09/05 08:30:06;;;;;;;2.50;0.90;;;;;;;17.67;41.68;101654.34;106226;1281;24324;-85
2022/09/05 08:33:03;;;;;;;4.40;1.10;;;;;;;17.84;41.13;101655.27;105722;1281;22880;-85
2022/09/05 08:35:42;;;;;;;3.60;1.20;;;;;;;18.01;40.58;101654.77;105896;1281;22545;-81
2022/09/05 08:38:12;;;;;;;3.30;1.20;;;;;;;18.13;39.99;101651.52;106137;1276;24443;-82
2022/09/05 08:41:15;;;;;;;2.70;0.90;;;;;;;18.24;39.65;101649.88;106292;1274;22531;-83
2022/09/05 08:43:58;;;;;;;4.10;1.10;;;;;;;18.39;39.48;101648.31;106021;1273;22533;-82
2022/09/05 08:46:52;;;;;;;3.20;1.10;;;;;;;18.57;39.20;101643.45;106234;1273;25265;-85
2022/09/05 08:49:53;;;;;;;4.40;1.20;;;;;;;18.73;39.05;101644.88;106181;1275;24827;-84
2022/09/05 08:52:51;;;;;;;1.60;0.80;;;;;;;18.88;38.30;101641.67;105514;1274;26552;-84
2022/09/05 08:55:37;;;;;;;;;;;;;;;19.03;38.17;101641.31;106107;1275;24387;-85
2022/09/05 08:58:31;;;;;;;4.30;1.00;;;;;;;19.19;37.70;101641.84;106140;1273;22584;-85
2022/09/05 09:01:11;;;;;;;5.60;1.30;;;;;;;19.34;36.86;101636.10;106269;1273;22642;-86
2022/09/05 09:03:56;;;;;;;4.20;0.80;;;;;;;19.46;36.65;101634.89;106134;1274;22544;-85
2022/09/05 09:06:42;;;;;;;2.10;0.80;;;;;;;19.63;36.52;101634.47;105997;1276;25415;-84
2022/09/05 09:09:51;;;;;;;1.50;0.70;;;;;;;19.83;36.05;101632.99;106118;1274;22548;-84
2022/09/05 09:12:30;;;;;;;1.80;0.70;;;;;;;19.98;35.48;101635.98;106266;1273;22528;-85
2022/09/05 09:15:14;;;;;;;2.30;0.80;;;;;;;20.12;35.32;101630.58;106305;1273;25264;-82
2022/09/05 09:17:44;;;;;;;0.80;0.60;;;;;;;20.30;34.60;101628.84;106187;1277;23948;-85
2022/09/05 09:20:19;;;;;;;4.50;0.60;;;;;;;20.40;34.21;101628.51;106254;1273;22539;-82
2022/09/05 09:23:04;;;;;;;1.20;0.40;;;;;;;20.52;34.03;101624.59;106523;1275;23157;-83
2022/09/05 09:25:55;;;;;;;1.60;0.50;;;;;;;20.70;34.17;101620.80;107094;1273;22553;-85
2022/09/05 09:28:41;;;;;;;2.20;0.60;;;;;;;20.81;33.62;101613.63;106234;1274;22905;-85
2022/09/05 09:31:38;;;;;;;5.00;0.70;;;;;;;20.95;33.22;101610.72;106308;1274;24208;-84
2022/09/05 09:34:21;;;;;;;2.30;1.20;;;;;;;21.01;32.98;101609.08;106774;1274;25387;-84
2022/09/05 09:37:17;;;;;;;3.50;0.80;;;;;;;21.13;33.06;101606.55;107778;1274;22537;-86
2022/09/05 09:40:16;;;;;;;2.00;0.80;;;;;;;21.32;32.92;101600.15;109123;1273;25281;-84
2022/09/05 09:42:44;;;;;;;2.20;0.80;;;;;;;21.53;32.80;101601.39;109227;1273;22539;-84
2022/09/05 09:45:43;;;;;;;1.40;0.80;;;;;;;21.69;32.55;101599.20;108283;1281;22616;-85
2022/09/05 09:48:34;;;;;;;3.40;1.00;;;;;;;21.85;32.12;101595.05;108140;1281;22542;-84
2022/09/05 09:51:13;;;;;;;4.50;0.90;;;;;;;22.00;31.80;101594.14;108562;1280;22586;-84
2022/09/05 09:53:58;;;;;;;1.30;0.60;;;;;;;22.20;31.70;101593.21;107804;1281;25496;-85
2022/09/05 09:57:07;;;;;;;2.30;0.70;;;;;;;22.37;31.27;101590.02;107470;1281;24287;-85
2022/09/05 09:59:56;;;;;;;2.10;0.80;;;;;;;22.52;31.01;101588.19;106392;1281;22555;-85
2022/09/05 10:02:48;;;;;;;2.40;0.80;;;;;;;22.67;30.54;101589.40;107407;1281;22904;-84
2022/09/05 10:05:50;;;;;;;5.10;0.70;;;;;;;22.73;30.58;101586.64;107345;1274;22614;-86
2022/09/05 10:08:56;;;;;;;2.00;0.50;;;;;;;22.85;30.45;101580.41;107616;1275;25377;-85
2022/09/05 10:12:11;;;;;;;1.00;0.60;;;;;;;23.00;29.60;101577.80;106912;1274;22823;-86
2022/09/05 10:15:16;;;;;;;1.00;0.40;;;;;;;23.16;29.61;101576.94;106824;1274;25371;-85
2022/09/05 10:18:20;;;;;;;0.70;0.40;;;;;;;23.37;28.85;101569.75;106251;1275;25523;-83
2022/09/05 10:21:02;;;;;;;1.90;0.50;;;;;;;23.45;28.72;101572.86;106353;1273;25896;-84
2022/09/05 10:24:10;;;;;;;0.70;0.60;;;;;;;23.53;28.33;101572.52;106317;1273;22778;-86
2022/09/05 10:26:56;;;;;;;0.90;0.60;;;;;;;23.64;28.00;101567.67;106526;1273;22554;-86
2022/09/05 10:29:41;;;;;;;1.50;0.80;;;;;;;23.80;27.95;101565.35;106284;1273;24426;-87
2022/09/05 10:32:24;;;;;;;2.70;0.60;;;;;;;24.01;27.60;101566.55;106247;1273;22699;-85
2022/09/05 10:35:29;;;;;;;1.30;0.50;;;;;;;24.12;27.69;101568.69;106245;1273;22556;-85
2022/09/05 10:38:01;;;;;;;;;;;;;;;24.29;27.73;101565.08;106105;1273;25431;-84
2022/09/05 10:40:43;;;;;;;2.30;0.40;;;;;;;24.32;27.41;101569.60;105828;1277;22550;-86
2022/09/05 10:43:34;;;;;;;1.70;0.60;;;;;;;24.40;27.06;101568.88;105967;1273;22531;-85
2022/09/05 10:46:13;;;;;;;2.80;0.80;;;;;;;24.46;27.05;101564.24;105853;1274;22551;-84
2022/09/05 10:49:07;;;;;;;1.90;0.40;;;;;;;24.43;26.87;101560.60;106172;1273;24226;-85
2022/09/05 10:51:38;;;;;;;3.50;0.80;;;;;;;24.47;26.78;101558.23;106015;1274;24778;-86
2022/09/05 10:54:36;;;;;;;0.60;0.60;;;;;;;24.56;26.89;101551.29;105835;1281;24514;-83
2022/09/05 10:57:12;;;;;;;3.10;0.50;;;;;;;24.78;26.78;101552.22;105653;1279;22572;-85
2022/09/05 10:59:59;;;;;;;;;;;;;;;24.76;26.65;101550.48;105568;1281;22539;-82
2022/09/05 11:02:52;;;;;;;4.00;0.60;;;;;;;24.88;26.26;101548.11;105715;1281;24227;-84
2022/09/05 11:05:35;;;;;;;2.20;0.60;;;;;;;25.06;26.48;101544.89;105605;1282;24305;-86
2022/09/05 11:08:17;;;;;;;1.50;0.60;;;;;;;25.20;26.52;101540.89;105916;1280;25660;-85
2022/09/05 11:10:54;;;;;;;1.90;0.50;;;;;;;25.34;26.40;101539.26;106007;1281;25381;-83
2022/09/05 11:13:36;;;;;;;2.90;0.50;;;;;;;25.59;26.22;101542.80;106156;1274;25941;-83
2022/09/05 11:16:27;;;;;;;1.30;0.50;;;;;;;25.72;25.89;101542.49;106046;1273;22797;-82
2022/09/05 11:19:26;;;;;;;1.90;0.80;;;;;;;25.73;25.90;101542.42;105916;1273;22554;-82
2022/09/05 11:22:01;;;;;;;1.40;0.40;;;;;;;25.91;25.90;101543.44;105909;1273;22521;-81
2022/09/05 11:24:50;;;;;;;3.00;0.50;;;;;;;26.09;25.67;101541.88;105838;1277;24271;-83
2022/09/05 11:27:34;;;;;;;0.70;0.50;;;;;;;26.08;25.41;101539.25;106101;1273;22906;-84
2022/09/05 11:30:32;;;;;;;0.40;0.40;;;;;;;26.12;24.60;101537.41;103181;1303;545681;-85
2022/09/05 11:33:46;;;;;;;2.60;0.30;;;;;;;25.89;24.55;101532.02;105182;1281;25457;-84
2022/09/05 11:36:50;;;;;;;0.70;0.40;;;;;;;26.10;25.19;101531.71;105894;1277;22537;-84
2022/09/05 11:40:05;;;;;;;0.40;0.40;;;;;;;26.35;25.50;101533.45;105738;1277;22572;-84
2022/09/05 11:43:11;;;;;;;2.40;0.50;;;;;;;26.63;25.09;101530.55;104811;1274;1434025;-83
2022/09/05 11:45:59;;;;;;;0.40;0.40;;;;;;;26.77;24.85;101530.45;105987;1277;24057;-83
2022/09/05 11:48:47;;;;;;;0.50;0.40;;;;;;;26.74;24.18;101526.48;106167;1277;22612;-85
2022/09/05 11:51:56;;;;;;;0.90;0.60;;;;;;;26.68;24.29;101525.35;106389;1274;22660;-84
2022/09/05 11:55:01;;;;;;;2.20;0.70;;;;;;;26.80;24.41;101519.77;106005;1275;22633;-83
2022/09/05 11:57:47;;;;;;;1.90;0.50;;;;;;;26.78;24.44;101522.98;106158;1275;25436;-83
2022/09/05 12:00:19;;;;;;;0.70;0.40;;;;;;;26.88;24.59;101513.88;106264;1274;22527;-84
2022/09/05 12:03:32;;;;;;;1.60;0.80;;;;;;;27.10;24.52;101518.36;106617;1274;26590;-84
2022/09/05 12:06:40;;;;;;;0.80;0.50;;;;;;;27.31;24.01;101509.30;106167;1274;22585;-84
2022/09/05 12:09:25;;;;;;;;;;;;;;;27.39;23.61;101504.27;106302;1275;22565;-82
2022/09/05 12:12:25;;;;;;;3.60;0.80;;;;;;;27.35;23.85;101504.75;106421;1277;22583;-83
2022/09/05 12:15:36;;;;;;;2.90;0.60;;;;;;;27.50;23.86;101501.23;106786;1267;24303;-85
2022/09/05 12:18:26;;;;;;;2.00;0.50;;;;;;;27.67;23.80;101508.52;106653;1268;24299;-86
2022/09/05 12:21:16;;;;;;;2.30;0.50;;;;;;;27.86;23.67;101506.77;106271;1274;26492;-83
2022/09/05 12:24:13;;;;;;;1.20;0.30;;;;;;;28.01;23.53;101500.40;106150;1273;25287;-84
2022/09/05 12:27:09;;;;;;;0.90;0.60;;;;;;;28.20;23.33;101502.75;106295;1273;25577;-83
2022/09/05 12:30:02;;;;;;;;;;;;;;;28.25;23.26;101498.64;106167;1276;25650;-83
2022/09/05 12:32:32;;;;;;;1.10;0.50;;;;;;;28.12;23.23;101503.13;106076;1275;24115;-83
2022/09/05 12:35:33;;;;;;;0.50;0.50;;;;;;;28.11;23.09;101496.29;106145;1273;24245;-83
2022/09/05 12:38:43;;;;;;;2.00;0.70;;;;;;;27.93;22.79;101498.56;106254;1271;24712;-82
2022/09/05 12:41:47;;;;;;;0.50;0.50;;;;;;;27.98;22.85;101496.26;106462;1268;22526;-87
2022/09/05 12:45:08;;;;;;;1.50;0.60;;;;;;;27.99;22.45;101493.31;106852;1268;22775;-85
2022/09/05 12:48:10;;;;;;;0.60;0.50;;;;;;;27.94;22.62;101490.88;106749;1268;25363;-87
2022/09/05 12:51:02;;;;;;;4.10;0.70;;;;;;;27.84;22.39;101491.15;106876;1268;24225;-86
2022/09/05 12:53:53;;;;;;;2.40;0.50;;;;;;;27.91;22.64;101489.45;108442;1267;25367;-85
2022/09/05 12:56:42;;;;;;;0.60;0.60;;;;;;;28.13;22.53;101484.98;108522;1267;23829;-83
2022/09/05 12:59:29;;;;;;;1.40;0.50;;;;;;;28.41;22.35;101472.11;108787;1267;23835;-84
2022/09/05 13:02:26;;;;;;;4.00;0.60;;;;;;;28.55;22.20;101469.71;109737;1267;22540;-83
2022/09/05 13:05:18;;;;;;;2.70;0.60;;;;;;;28.73;22.11;101466.67;109390;1267;22482;-84
2022/09/05 13:07:57;;;;;;;2.90;0.80;;;;;;;28.93;22.01;101466.76;109541;1267;25241;-84
2022/09/05 13:10:39;;;;;;;1.20;0.70;;;;;;;29.15;21.69;101469.02;108773;1267;22513;-84
2022/09/05 13:13:38;;;;;;;0.60;0.40;;;;;;;29.30;21.87;101465.44;109013;1267;22605;-85
2022/09/05 13:16:28;;;;;;;0.40;0.40;;;;;;;29.24;21.14;101463.67;107678;1267;22558;-87
2022/09/05 13:19:06;;;;;;;1.10;0.50;;;;;;;29.06;21.49;101461.14;106461;1275;22514;-85
2022/09/05 13:21:44;;;;;;;0.70;0.50;;;;;;;28.96;21.76;101457.81;106072;1276;25674;-80
2022/09/05 13:24:26;;;;;;;2.00;0.50;;;;;;;28.96;21.59;101456.76;106073;1273;24252;-79
2022/09/05 13:26:57;;;;;;;0.90;0.60;;;;;;;28.95;21.74;101455.53;105795;1278;22589;-79
2022/09/05 13:29:45;;;;;;;2.70;0.60;;;;;;;28.99;21.88;101454.23;105371;1279;22572;-80
2022/09/05 13:32:37;;;;;;;0.40;0.40;;;;;;;29.04;21.85;101453.27;105573;1280;24292;-79
2022/09/05 13:35:35;;;;;;;0.30;0.30;;;;;;;29.03;21.55;101449.92;105481;1279;24402;-79
2022/09/05 13:38:37;;;;;;;0.60;0.50;;;;;;;29.01;21.92;101447.16;105905;1275;25336;-80
2022/09/05 13:41:29;;;;;;;1.40;0.50;;;;;;;29.14;21.84;101449.34;105771;1278;22671;-80